createdAt,value
2018-04-27T00:00:02.324Z,9.27
2018-04-27T00:02:29.815Z,10.13
2018-04-27T00:04:57.311Z,9.67
2018-04-27T00:07:24.780Z,9.17
2018-04-27T00:09:52.288Z,10.33
2018-04-27T00:12:19.784Z,6.80
2018-04-27T00:14:48.030Z,8.00
2018-04-27T00:17:15.522Z,9.30
2018-04-27T00:19:43.018Z,5.93
2018-04-27T00:22:10.529Z,6.17
2018-04-27T00:24:38.776Z,5.80
2018-04-27T00:27:06.246Z,9.00
2018-04-27T00:29:33.760Z,10.13
2018-04-27T00:32:01.252Z,8.57
2018-04-27T00:34:28.806Z,5.60
2018-04-27T00:36:56.266Z,9.67
2018-04-27T00:39:23.739Z,12.47
2018-04-27T00:41:51.203Z,9.13
2018-04-27T00:44:18.707Z,8.60
2018-04-27T00:46:46.171Z,9.80
2018-04-27T00:49:13.655Z,7.17
2018-04-27T00:51:41.123Z,7.30
2018-04-27T00:54:08.618Z,10.90
2018-04-27T00:56:36.084Z,9.33
2018-04-27T00:59:03.615Z,7.33
2018-04-27T01:01:31.843Z,7.67
2018-04-27T01:03:59.335Z,6.83
2018-04-27T01:06:26.806Z,8.03
2018-04-27T01:08:55.090Z,10.53
2018-04-27T01:11:23.319Z,9.80
2018-04-27T01:13:50.789Z,7.47
2018-04-27T01:16:18.271Z,9.33
2018-04-27T01:18:46.526Z,6.97
2018-04-27T01:21:14.002Z,6.07
2018-04-27T01:23:42.257Z,6.10
2018-04-27T01:26:09.729Z,9.70
2018-04-27T01:28:37.214Z,8.73
2018-04-27T01:31:04.678Z,6.63
2018-04-27T01:33:32.142Z,11.13
2018-04-27T01:35:59.618Z,9.77
2018-04-27T01:38:27.128Z,10.93
2018-04-27T01:40:55.416Z,9.17
2018-04-27T01:43:22.904Z,9.80
2018-04-27T01:45:50.389Z,9.03
2018-04-27T01:48:17.867Z,9.93
2018-04-27T01:50:45.365Z,8.77
2018-04-27T01:53:12.831Z,8.03
2018-04-27T01:55:40.307Z,11.27
2018-04-27T01:58:07.765Z,10.93
2018-04-27T02:00:35.256Z,12.30
2018-04-27T02:03:03.484Z,8.00
2018-04-27T02:05:30.963Z,6.70
2018-04-27T02:07:58.424Z,9.67
2018-04-27T02:10:25.908Z,7.07
2018-04-27T02:12:54.144Z,9.70
2018-04-27T02:15:21.628Z,7.00
2018-04-27T02:17:49.123Z,5.97
2018-04-27T02:20:16.606Z,7.37
2018-04-27T02:22:44.076Z,9.23
2018-04-27T02:25:11.581Z,10.67
2018-04-27T02:27:39.037Z,10.67
2018-04-27T02:30:07.305Z,10.93
2018-04-27T02:32:35.526Z,9.20
2018-04-27T02:35:03.023Z,9.93
2018-04-27T02:37:30.503Z,9.00
2018-04-27T02:39:58.741Z,8.23
2018-04-27T02:42:26.215Z,7.30
2018-04-27T02:44:53.687Z,11.13
2018-04-27T02:47:21.187Z,9.97
2018-04-27T02:49:48.659Z,9.37
2018-04-27T02:52:16.136Z,9.97
2018-04-27T02:54:43.603Z,7.27
2018-04-27T02:57:11.881Z,10.87
2018-04-27T02:59:39.350Z,7.67
2018-04-27T03:02:06.824Z,10.20
2018-04-27T03:04:35.060Z,10.63
2018-04-27T03:07:02.530Z,8.80
2018-04-27T03:09:29.993Z,8.30
2018-04-27T03:11:57.489Z,7.83
2018-04-27T03:14:24.984Z,7.83
2018-04-27T03:16:52.483Z,9.00
2018-04-27T03:19:20.726Z,10.50
2018-04-27T03:21:48.203Z,8.37
2018-04-27T03:24:15.667Z,9.93
2018-04-27T03:26:43.919Z,9.43
2018-04-27T03:29:11.403Z,12.07
2018-04-27T03:31:39.662Z,11.10
2018-04-27T03:34:07.161Z,11.97
2018-04-27T03:36:34.680Z,10.73
2018-04-27T03:39:02.141Z,8.80
2018-04-27T03:41:29.653Z,13.73
2018-04-27T03:43:57.117Z,11.73
2018-04-27T03:46:24.597Z,9.73
2018-04-27T03:48:52.074Z,8.27
2018-04-27T03:51:19.560Z,12.90
2018-04-27T03:53:47.022Z,12.20
2018-04-27T03:56:14.526Z,10.50
2018-04-27T03:58:41.998Z,12.13
2018-04-27T04:01:21.318Z,10.13
2018-04-27T04:04:00.790Z,10.47
2018-04-27T04:06:29.052Z,9.97
2018-04-27T04:08:56.514Z,10.50
2018-04-27T04:11:24.763Z,11.33
2018-04-27T04:13:52.259Z,9.60
2018-04-27T04:16:20.502Z,17.93
2018-04-27T04:18:47.969Z,10.97
2018-04-27T04:21:15.441Z,10.07
2018-04-27T04:23:43.702Z,11.97
2018-04-27T04:26:11.170Z,13.00
2018-04-27T04:28:39.503Z,13.53
2018-04-27T04:31:06.961Z,12.17
2018-04-27T04:33:34.468Z,14.30
2018-04-27T04:36:02.712Z,13.30
2018-04-27T04:38:30.189Z,11.40
2018-04-27T04:40:57.703Z,12.23
2018-04-27T04:43:25.209Z,13.73
2018-04-27T04:45:52.674Z,10.63
2018-04-27T04:48:20.161Z,12.90
2018-04-27T04:50:47.727Z,15.23
2018-04-27T04:53:15.219Z,15.57
2018-04-27T04:55:42.696Z,16.57
2018-04-27T04:58:10.179Z,14.53
2018-04-27T05:00:37.664Z,15.47
2018-04-27T05:03:05.145Z,11.67
2018-04-27T05:05:32.601Z,12.93
2018-04-27T05:08:00.124Z,13.10
2018-04-27T05:10:27.615Z,13.83
2018-04-27T05:12:55.091Z,14.73
2018-04-27T05:15:22.591Z,12.67
2018-04-27T05:17:50.099Z,13.50
2018-04-27T05:20:17.071Z,11.53
2018-04-27T05:22:45.331Z,11.23
2018-04-27T05:25:12.898Z,11.70
2018-04-27T05:27:40.380Z,10.70
2018-04-27T05:30:07.845Z,17.97
2018-04-27T05:32:35.344Z,11.00
2018-04-27T05:35:02.816Z,10.30
2018-04-27T05:37:30.334Z,13.20
2018-04-27T05:39:57.838Z,13.63
2018-04-27T05:42:25.336Z,10.47
2018-04-27T05:44:52.841Z,15.80
2018-04-27T05:47:20.379Z,10.03
2018-04-27T05:49:47.857Z,10.80
2018-04-27T05:52:15.346Z,12.33
2018-04-27T05:54:43.631Z,11.00
2018-04-27T05:57:11.868Z,11.20
2018-04-27T05:59:39.339Z,13.93
2018-04-27T06:02:06.815Z,10.13
2018-04-27T06:04:35.106Z,10.10
2018-04-27T06:07:02.573Z,9.83
2018-04-27T06:09:30.075Z,13.83
2018-04-27T06:11:57.545Z,8.87
2018-04-27T06:14:25.024Z,13.13
2018-04-27T06:16:53.246Z,8.43
2018-04-27T06:19:20.769Z,10.10
2018-04-27T06:21:48.245Z,10.00
2018-04-27T06:24:15.729Z,8.47
2018-04-27T06:26:43.208Z,11.10
2018-04-27T06:29:10.697Z,11.77
2018-04-27T06:31:38.931Z,9.00
2018-04-27T06:34:06.415Z,9.87
2018-04-27T06:36:34.650Z,8.63
2018-04-27T06:39:02.895Z,10.23
2018-04-27T06:41:30.359Z,9.37
2018-04-27T06:43:57.825Z,9.97
2018-04-27T06:46:25.311Z,9.63
2018-04-27T06:48:52.790Z,8.73
2018-04-27T06:51:20.397Z,11.20
2018-04-27T06:53:47.930Z,10.23
2018-04-27T06:56:15.407Z,11.27
2018-04-27T06:58:42.912Z,9.60
2018-04-27T07:01:10.380Z,10.80
2018-04-27T07:03:37.873Z,6.30
2018-04-27T07:06:05.328Z,8.57
2018-04-27T07:08:32.831Z,9.17
2018-04-27T07:11:00.319Z,10.27
2018-04-27T07:13:28.584Z,11.37
2018-04-27T07:15:56.074Z,9.00
2018-04-27T07:18:23.543Z,7.13
2018-04-27T07:20:51.612Z,8.70
2018-04-27T07:23:19.100Z,8.27
2018-04-27T07:25:46.660Z,7.23
2018-04-27T07:28:14.144Z,6.30
2018-04-27T07:30:41.624Z,6.60
2018-04-27T07:33:09.880Z,7.77
2018-04-27T07:35:37.382Z,6.10
2018-04-27T07:38:04.889Z,7.67
2018-04-27T07:40:32.407Z,8.73
2018-04-27T07:42:59.952Z,8.07
2018-04-27T07:45:27.435Z,7.20
2018-04-27T07:47:54.903Z,6.90
2018-04-27T07:50:22.390Z,4.33
2018-04-27T07:52:49.875Z,9.20
2018-04-27T07:55:18.213Z,6.97
2018-04-27T07:57:45.644Z,9.80
2018-04-27T08:00:13.157Z,8.37
2018-04-27T08:02:41.379Z,5.33
2018-04-27T08:05:08.869Z,8.70
2018-04-27T08:07:36.351Z,7.20
2018-04-27T08:10:04.613Z,9.57
2018-04-27T08:12:32.864Z,5.80
2018-04-27T08:15:00.359Z,8.38
2018-04-27T08:17:28.618Z,4.47
2018-04-27T08:19:56.149Z,6.70
2018-04-27T08:22:23.629Z,5.32
2018-04-27T08:24:51.134Z,5.50
2018-04-27T08:27:18.730Z,5.32
2018-04-27T08:29:46.240Z,6.13
2018-04-27T08:32:13.722Z,6.17
2018-04-27T08:34:41.200Z,6.13
2018-04-27T08:37:08.709Z,5.53
2018-04-27T08:39:36.239Z,8.00
2018-04-27T08:42:03.757Z,5.87
2018-04-27T08:44:31.264Z,7.47
2018-04-27T08:46:59.532Z,4.83
2018-04-27T08:49:27.021Z,6.63
2018-04-27T08:51:54.590Z,4.47
2018-04-27T08:54:22.074Z,6.70
2018-04-27T08:56:49.574Z,4.43
2018-04-27T08:59:17.820Z,4.60
2018-04-27T09:01:45.331Z,3.72
2018-04-27T09:04:12.833Z,4.65
2018-04-27T09:06:40.378Z,3.78
2018-04-27T09:09:07.868Z,5.03
2018-04-27T09:11:35.360Z,5.35
2018-04-27T09:14:02.860Z,6.30
2018-04-27T09:16:31.166Z,2.78
2018-04-27T09:18:58.650Z,5.97
2018-04-27T09:21:26.908Z,3.40
2018-04-27T09:23:54.400Z,3.80
2018-04-27T09:26:21.892Z,6.47
2018-04-27T09:28:49.374Z,3.87
2018-04-27T09:31:16.866Z,4.43
2018-04-27T09:33:44.331Z,5.32
2018-04-27T09:36:11.826Z,6.18
2018-04-27T09:38:39.358Z,11.48
2018-04-27T09:41:06.903Z,4.22
2018-04-27T09:43:34.463Z,4.32
2018-04-27T09:46:01.968Z,5.07
2018-04-27T09:48:29.449Z,4.25
2018-04-27T09:50:57.724Z,4.93
2018-04-27T09:53:25.235Z,5.20
2018-04-27T09:55:52.733Z,4.15
2018-04-27T09:58:20.219Z,4.60
2018-04-27T10:00:47.692Z,5.00
2018-04-27T10:03:15.206Z,6.90
2018-04-27T10:05:42.697Z,3.95
2018-04-27T10:08:10.225Z,6.72
2018-04-27T10:10:37.717Z,6.30
2018-04-27T10:13:05.208Z,4.57
2018-04-27T10:15:32.671Z,5.97
2018-04-27T10:18:00.170Z,5.60
2018-04-27T10:20:28.428Z,3.85
2018-04-27T10:22:56.296Z,3.95
2018-04-27T10:25:23.820Z,5.10
2018-04-27T10:27:51.323Z,5.10
2018-04-27T10:30:18.817Z,5.00
2018-04-27T10:32:46.300Z,5.87
2018-04-27T10:35:13.780Z,4.65
2018-04-27T10:37:41.267Z,2.65
2018-04-27T10:40:09.513Z,5.28
2018-04-27T10:42:37.229Z,5.60
2018-04-27T10:45:04.695Z,6.05
2018-04-27T10:47:32.188Z,4.68
2018-04-27T10:49:59.688Z,3.67
2018-04-27T10:52:27.164Z,3.62
2018-04-27T10:54:54.634Z,4.10
2018-04-27T10:57:22.126Z,3.00
2018-04-27T10:59:49.600Z,4.97
2018-04-27T11:02:17.867Z,3.30
2018-04-27T11:04:45.382Z,4.55
2018-04-27T11:07:12.891Z,5.87
2018-04-27T11:09:41.170Z,4.93
2018-04-27T11:12:08.640Z,3.50
2018-04-27T11:14:36.905Z,4.97
2018-04-27T11:17:05.313Z,3.72
2018-04-27T11:19:32.673Z,4.18
2018-04-27T11:22:00.151Z,4.12
2018-04-27T11:24:27.652Z,3.40
2018-04-27T11:26:55.896Z,3.65
2018-04-27T11:29:23.396Z,4.60
2018-04-27T11:31:51.670Z,2.87
2018-04-27T11:34:19.922Z,3.37
2018-04-27T11:36:47.422Z,2.20
2018-04-27T11:39:14.939Z,5.10
2018-04-27T11:41:42.439Z,3.80
2018-04-27T11:44:09.966Z,3.80
2018-04-27T11:46:37.462Z,4.37
2018-04-27T11:49:04.961Z,3.72
2018-04-27T11:51:33.201Z,7.55
2018-04-27T11:54:00.706Z,3.85
2018-04-27T11:56:28.231Z,3.83
2018-04-27T11:58:55.795Z,3.65
2018-04-27T12:01:23.265Z,4.80
2018-04-27T12:03:50.763Z,2.78
2018-04-27T12:06:19.071Z,3.47
2018-04-27T12:08:46.559Z,2.72
2018-04-27T12:11:14.091Z,4.57
2018-04-27T12:13:41.561Z,3.47
2018-04-27T12:16:09.069Z,3.15
2018-04-27T12:18:37.304Z,3.85
2018-04-27T12:21:04.816Z,3.87
2018-04-27T12:23:32.274Z,3.35
2018-04-27T12:25:59.805Z,7.25
2018-04-27T12:28:27.322Z,4.18
2018-04-27T12:30:54.902Z,6.47
2018-04-27T12:33:23.061Z,2.75
2018-04-27T12:35:50.602Z,3.08
2018-04-27T12:38:18.089Z,2.40
2018-04-27T12:40:45.568Z,2.17
2018-04-27T12:43:13.070Z,6.32
2018-04-27T12:45:40.550Z,3.22
2018-04-27T12:48:08.057Z,1.90
2018-04-27T12:50:36.344Z,2.97
2018-04-27T12:53:03.890Z,3.62
2018-04-27T12:55:32.134Z,5.10
2018-04-27T12:57:59.686Z,4.65
2018-04-27T13:00:27.168Z,2.67
2018-04-27T13:02:54.682Z,3.65
2018-04-27T13:05:22.154Z,4.85
2018-04-27T13:07:49.697Z,3.45
2018-04-27T13:10:17.167Z,2.83
2018-04-27T13:12:44.656Z,8.90
2018-04-27T13:15:12.168Z,3.60
2018-04-27T13:17:39.656Z,3.22
2018-04-27T13:20:07.177Z,5.00
2018-04-27T13:22:34.667Z,2.53
2018-04-27T13:25:02.938Z,3.15
2018-04-27T13:27:30.466Z,5.78
2018-04-27T13:29:57.968Z,2.80
2018-04-27T13:32:25.442Z,4.23
2018-04-27T13:34:52.957Z,3.13
2018-04-27T13:37:20.456Z,4.40
2018-04-27T13:39:47.997Z,3.63
2018-04-27T13:42:15.487Z,1.97
2018-04-27T13:44:43.785Z,3.43
2018-04-27T13:47:11.273Z,3.70
2018-04-27T13:49:38.778Z,2.92
2018-04-27T13:52:07.037Z,2.62
2018-04-27T13:54:34.553Z,3.28
2018-04-27T13:57:02.068Z,3.47
2018-04-27T13:59:29.576Z,4.97
2018-04-27T14:01:57.131Z,4.53
2018-04-27T14:04:24.609Z,2.83
2018-04-27T14:06:52.131Z,3.73
2018-04-27T14:09:19.613Z,4.83
2018-04-27T14:11:47.117Z,2.93
2018-04-27T14:14:14.607Z,6.63
2018-04-27T14:16:42.105Z,4.30
2018-04-27T14:19:10.370Z,2.90
2018-04-27T14:21:37.865Z,4.67
2018-04-27T14:24:05.367Z,5.13
2018-04-27T14:26:32.849Z,2.00
2018-04-27T14:29:00.347Z,2.33
2018-04-27T14:31:28.593Z,2.63
2018-04-27T14:33:56.154Z,2.30
2018-04-27T14:36:23.604Z,4.30
2018-04-27T14:38:51.116Z,3.87
2018-04-27T14:41:19.358Z,2.70
2018-04-27T14:43:46.877Z,2.70
2018-04-27T14:46:14.358Z,2.57
2018-04-27T14:48:41.930Z,4.70
2018-04-27T14:51:09.910Z,3.87
2018-04-27T14:53:37.454Z,5.03
2018-04-27T14:56:04.954Z,3.20
2018-04-27T14:58:33.261Z,5.10
2018-04-27T15:01:00.728Z,3.63
2018-04-27T15:03:28.210Z,2.30
2018-04-27T15:05:59.677Z,2.87
2018-04-27T15:08:27.945Z,3.63
2018-04-27T15:10:55.455Z,4.23
2018-04-27T15:13:22.925Z,4.80
2018-04-27T15:15:50.434Z,3.50
2018-04-27T15:18:18.936Z,3.50
2018-04-27T15:20:46.459Z,4.73
2018-04-27T15:23:13.945Z,4.63
2018-04-27T15:25:41.463Z,3.57
2018-04-27T15:28:08.987Z,4.63
2018-04-27T15:30:36.551Z,4.17
2018-04-27T15:33:04.067Z,1.70
2018-04-27T15:35:31.553Z,3.53
2018-04-27T15:37:59.063Z,4.43
2018-04-27T15:40:26.562Z,4.37
2018-04-27T15:42:54.083Z,3.17
2018-04-27T15:45:21.558Z,3.53
2018-04-27T15:47:49.843Z,3.53
2018-04-27T15:50:18.085Z,2.87
2018-04-27T15:52:45.620Z,3.90
2018-04-27T15:55:13.099Z,3.23
2018-04-27T15:57:40.680Z,1.93
2018-04-27T16:00:08.938Z,3.60
2018-04-27T16:02:36.432Z,2.37
2018-04-27T16:05:04.680Z,3.90
2018-04-27T16:07:32.226Z,5.30
2018-04-27T16:09:59.698Z,5.10
2018-04-27T16:12:27.392Z,2.90
2018-04-27T16:14:54.935Z,3.00
2018-04-27T16:17:23.146Z,5.33
2018-04-27T16:19:50.648Z,2.57
2018-04-27T16:22:18.135Z,3.73
2018-04-27T16:24:46.433Z,5.07
2018-04-27T16:27:13.962Z,3.00
2018-04-27T16:29:42.254Z,3.03
2018-04-27T16:32:09.722Z,4.37
2018-04-27T16:34:37.264Z,3.60
2018-04-27T16:37:05.507Z,3.50
2018-04-27T16:39:33.021Z,5.53
2018-04-27T16:42:00.549Z,3.10
2018-04-27T16:44:28.019Z,5.73
2018-04-27T16:46:55.492Z,3.90
2018-04-27T16:49:23.034Z,3.13
2018-04-27T16:51:50.520Z,3.87
2018-04-27T16:54:18.064Z,3.33
2018-04-27T16:56:45.577Z,2.13
2018-04-27T16:59:13.096Z,3.77
2018-04-27T17:01:40.643Z,3.80
2018-04-27T17:04:08.896Z,2.33
2018-04-27T17:06:36.407Z,3.20
2018-04-27T17:09:04.555Z,3.17
2018-04-27T17:11:32.063Z,4.10
2018-04-27T17:13:59.544Z,4.37
2018-04-27T17:16:27.805Z,3.57
2018-04-27T17:18:56.065Z,3.57
2018-04-27T17:21:23.589Z,2.43
2018-04-27T17:23:51.119Z,2.73
2018-04-27T17:26:18.653Z,7.00
2018-04-27T17:28:46.171Z,2.50
2018-04-27T17:31:13.717Z,1.37
2018-04-27T17:33:41.214Z,5.00
2018-04-27T17:36:08.772Z,4.03
2018-04-27T17:38:36.294Z,2.53
2018-04-27T17:41:03.793Z,2.13
2018-04-27T17:43:31.318Z,3.00
2018-04-27T17:45:58.895Z,3.27
2018-04-27T17:48:26.402Z,6.87
2018-04-27T17:50:53.869Z,3.20
2018-04-27T17:53:21.418Z,3.57
2018-04-27T17:55:49.663Z,1.60
2018-04-27T17:58:17.187Z,4.20
2018-04-27T18:00:44.686Z,3.00
2018-04-27T18:03:12.202Z,2.17
2018-04-27T18:05:39.668Z,2.73
2018-04-27T18:08:07.203Z,3.07
2018-04-27T18:10:34.721Z,3.13
2018-04-27T18:13:02.251Z,3.83
2018-04-27T18:15:29.751Z,4.97
2018-04-27T18:17:57.236Z,3.87
2018-04-27T18:20:24.748Z,3.60
2018-04-27T18:22:52.277Z,2.50
2018-04-27T18:25:19.918Z,4.37
2018-04-27T18:27:48.220Z,3.23
2018-04-27T18:30:15.658Z,4.30
2018-04-27T18:32:43.998Z,2.97
2018-04-27T18:35:11.435Z,4.83
2018-04-27T18:37:38.909Z,3.43
2018-04-27T18:40:07.194Z,3.07
2018-04-27T18:42:35.513Z,4.27
2018-04-27T18:45:02.982Z,4.60
2018-04-27T18:47:30.481Z,3.00
2018-04-27T18:49:58.772Z,2.77
2018-04-27T18:52:26.268Z,5.10
2018-04-27T18:54:53.787Z,2.53
2018-04-27T18:57:23.850Z,3.97
2018-04-27T18:59:51.392Z,3.37
2018-04-27T19:02:18.911Z,4.63
2018-04-27T19:04:47.163Z,3.47
2018-04-27T19:07:14.676Z,3.00
2018-04-27T19:09:42.927Z,4.93
2018-04-27T19:12:11.205Z,4.63
2018-04-27T19:14:39.469Z,5.00
2018-04-27T19:17:07.773Z,3.43
2018-04-27T19:19:35.268Z,6.60
2018-04-27T19:22:05.770Z,4.00
2018-04-27T19:24:33.249Z,2.57
2018-04-27T19:27:00.763Z,3.70
2018-04-27T19:29:28.328Z,6.53
2018-04-27T19:31:55.808Z,3.80
2018-04-27T19:34:23.300Z,3.27
2018-04-27T19:36:50.825Z,3.73
2018-04-27T19:39:18.311Z,5.30
2018-04-27T19:41:45.825Z,3.13
2018-04-27T19:44:13.335Z,3.27
2018-04-27T19:46:40.983Z,5.20
2018-04-27T19:49:08.542Z,2.83
2018-04-27T19:51:36.019Z,3.80
2018-04-27T19:54:03.555Z,4.77
2018-04-27T19:56:31.057Z,5.67
2018-04-27T19:58:59.348Z,3.83
2018-04-27T20:01:26.827Z,9.80
2018-04-27T20:03:54.348Z,10.47
2018-04-27T20:06:22.584Z,12.87
2018-04-27T20:08:50.127Z,16.93
2018-04-27T20:11:17.691Z,15.07
2018-04-27T20:13:45.134Z,6.43
2018-04-27T20:16:12.655Z,4.23
2018-04-27T20:18:40.130Z,4.77
2018-04-27T20:21:07.605Z,6.87
2018-04-27T20:23:36.060Z,7.63
2018-04-27T20:26:05.307Z,4.97
2018-04-27T20:28:33.718Z,7.67
2018-04-27T20:31:01.229Z,2.73
2018-04-27T20:33:28.745Z,4.20
2018-04-27T20:35:56.263Z,5.20
2018-04-27T20:38:30.220Z,6.77
2018-04-27T20:41:00.185Z,5.90
2018-04-27T20:43:27.997Z,10.70
2018-04-27T20:45:57.590Z,5.00
2018-04-27T20:48:25.780Z,6.17
2018-04-27T20:50:56.602Z,6.03
2018-04-27T20:53:24.158Z,4.63
2018-04-27T20:55:53.036Z,3.30
2018-04-27T20:58:20.526Z,8.30
2018-04-27T21:00:48.801Z,4.07
2018-04-27T21:03:17.083Z,6.30
2018-04-27T21:05:45.353Z,4.60
2018-04-27T21:08:13.594Z,4.47
2018-04-27T21:10:41.099Z,3.87
2018-04-27T21:13:09.339Z,7.97
2018-04-27T21:15:36.847Z,5.53
2018-04-27T21:18:06.134Z,3.70
2018-04-27T21:20:33.620Z,4.63
2018-04-27T21:23:01.121Z,3.07
2018-04-27T21:25:42.716Z,5.10
2018-04-27T21:28:12.697Z,3.73
2018-04-27T21:30:40.166Z,5.20
2018-04-27T21:33:08.449Z,4.67
2018-04-27T21:35:48.655Z,4.80
2018-04-27T21:38:34.650Z,3.87
2018-04-27T21:41:02.156Z,3.60
2018-04-27T21:43:29.650Z,6.60
2018-04-27T21:45:57.131Z,8.70
2018-04-27T21:48:27.154Z,8.20
2018-04-27T21:50:54.702Z,5.60
2018-04-27T21:53:22.247Z,6.13
2018-04-27T21:55:49.722Z,5.10
2018-04-27T21:58:23.829Z,5.27
2018-04-27T22:00:51.744Z,3.43
2018-04-27T22:03:20.082Z,3.73
2018-04-27T22:06:07.036Z,3.50
2018-04-27T22:08:35.319Z,3.07
2018-04-27T22:11:03.468Z,4.50
2018-04-27T22:13:32.661Z,2.47
2018-04-27T22:16:00.130Z,5.10
2018-04-27T22:18:27.626Z,4.97
2018-04-27T22:20:56.697Z,4.60
2018-04-27T22:23:25.798Z,5.17
2018-04-27T22:25:53.308Z,4.37
2018-04-27T22:28:27.112Z,3.47
2018-04-27T22:30:55.446Z,3.10
2018-04-27T22:33:27.348Z,3.17
2018-04-27T22:36:19.623Z,1.97
2018-04-27T22:42:13.130Z,5.80
2018-04-27T22:45:12.251Z,6.50
2018-04-27T22:47:52.374Z,6.23
2018-04-27T22:50:21.680Z,6.67
2018-04-27T22:52:49.143Z,4.70
2018-04-27T22:55:19.439Z,6.17
2018-04-27T22:57:56.818Z,3.00
2018-04-27T23:00:25.031Z,4.87
2018-04-27T23:02:52.523Z,2.73
2018-04-27T23:05:28.594Z,4.70
2018-04-27T23:07:59.349Z,6.17
2018-04-27T23:13:27.354Z,4.77
2018-04-27T23:16:05.772Z,3.93
2018-04-27T23:18:42.325Z,5.67
2018-04-27T23:21:09.841Z,4.03
2018-04-27T23:23:37.311Z,7.17
2018-04-27T23:26:04.855Z,6.53
2018-04-27T23:28:32.282Z,6.20
2018-04-27T23:30:59.745Z,5.17
2018-04-27T23:33:28.052Z,4.10
2018-04-27T23:35:55.514Z,3.30
2018-04-27T23:38:22.992Z,5.00
2018-04-27T23:40:51.609Z,3.77
2018-04-27T23:43:19.892Z,5.33
2018-04-27T23:45:47.361Z,7.37
2018-04-27T23:48:14.850Z,3.17
2018-04-27T23:50:42.329Z,3.13
2018-04-27T23:53:09.817Z,5.37
2018-04-27T23:55:39.220Z,4.90
2018-04-27T23:58:06.735Z,7.13
